createdAt,value
2022-08-09T00:01:43.092Z,36.40
2022-08-09T00:04:06.066Z,36.50
2022-08-09T00:06:23.052Z,36.40
2022-08-09T00:08:32.085Z,36.40
2022-08-09T00:10:34.460Z,36.40
2022-08-09T00:12:37.628Z,36.50
2022-08-09T00:14:40.285Z,36.40
2022-08-09T00:16:48.985Z,36.40
2022-08-09T00:18:52.161Z,36.40
2022-08-09T00:20:55.495Z,37.10
2022-08-09T00:22:57.247Z,36.50
2022-08-09T00:25:12.786Z,36.40
2022-08-09T00:27:14.658Z,36.40
2022-08-09T00:30:09.751Z,36.40
2022-08-09T00:31:59.295Z,36.50
2022-08-09T00:33:59.693Z,36.50
2022-08-09T00:36:04.632Z,36.60
2022-08-09T00:38:06.332Z,36.50
2022-08-09T00:40:12.873Z,36.50
2022-08-09T00:44:13.136Z,36.50
2022-08-09T00:44:40.794Z,36.50
2022-08-09T00:46:57.628Z,36.50
2022-08-09T00:49:05.330Z,36.50
2022-08-09T00:51:10.419Z,36.50
2022-08-09T00:53:13.855Z,36.50
2022-08-09T00:56:03.020Z,36.60
2022-08-09T00:57:38.770Z,36.50
2022-08-09T00:59:46.107Z,36.60
2022-08-09T01:01:51.369Z,36.60
2022-08-09T01:04:03.897Z,36.60
2022-08-09T01:06:17.416Z,36.60
2022-08-09T01:08:34.369Z,36.70
2022-08-09T01:10:56.768Z,36.60
2022-08-09T01:13:11.681Z,36.60
2022-08-09T01:15:17.646Z,36.60
2022-08-09T01:17:34.660Z,36.60
2022-08-09T01:20:02.465Z,36.70
2022-08-09T01:22:27.407Z,36.70
2022-08-09T01:24:52.179Z,36.60
2022-08-09T01:27:15.174Z,36.70
2022-08-09T01:29:28.047Z,36.70
2022-08-09T01:32:30.700Z,36.60
2022-08-09T01:34:02.897Z,36.70
2022-08-09T01:36:11.420Z,36.60
2022-08-09T01:38:26.280Z,36.70
2022-08-09T01:40:29.849Z,37.30
2022-08-09T01:42:35.109Z,36.70
2022-08-09T01:44:39.288Z,36.70
2022-08-09T01:46:47.010Z,36.70
2022-08-09T01:48:51.578Z,36.70
2022-08-09T01:50:55.541Z,36.70
2022-08-09T01:53:01.806Z,36.70
2022-08-09T01:55:24.748Z,36.70
2022-08-09T01:57:40.149Z,36.60
2022-08-09T01:59:52.542Z,36.70
2022-08-09T02:01:58.989Z,36.70
2022-08-09T02:04:05.108Z,36.70
2022-08-09T02:06:12.042Z,36.70
2022-08-09T02:08:39.387Z,36.70
2022-08-09T02:10:51.212Z,36.70
2022-08-09T02:12:56.048Z,36.70
2022-08-09T02:15:00.880Z,36.60
2022-08-09T02:17:15.014Z,36.60
2022-08-09T02:19:25.161Z,36.60
2022-08-09T02:21:44.573Z,36.60
2022-08-09T02:23:54.535Z,36.60
2022-08-09T02:25:59.189Z,36.70
2022-08-09T02:28:13.223Z,36.60
2022-08-09T02:30:20.153Z,36.60
2022-08-09T02:32:24.996Z,36.70
2022-08-09T02:34:41.712Z,36.80
2022-08-09T02:36:56.906Z,36.70
2022-08-09T02:39:04.150Z,36.70
2022-08-09T02:41:15.393Z,36.80
2022-08-09T02:43:19.085Z,36.70
2022-08-09T02:45:30.885Z,36.80
2022-08-09T02:47:57.229Z,36.80
2022-08-09T02:50:07.497Z,37.40
2022-08-09T02:52:15.105Z,36.70
2022-08-09T02:54:20.441Z,36.70
2022-08-09T02:56:23.853Z,36.80
2022-08-09T02:58:36.831Z,36.80
2022-08-09T03:00:47.847Z,36.80
2022-08-09T03:03:00.814Z,36.80
2022-08-09T03:05:05.977Z,36.70
2022-08-09T03:07:12.240Z,36.70
2022-08-09T03:09:17.367Z,36.70
2022-08-09T03:11:30.084Z,36.80
2022-08-09T03:13:59.381Z,36.80
2022-08-09T03:16:06.090Z,36.80
2022-08-09T03:18:10.846Z,36.80
2022-08-09T03:20:14.137Z,36.80
2022-08-09T03:22:41.500Z,36.80
2022-08-09T03:24:49.803Z,36.80
2022-08-09T03:26:55.896Z,36.90
2022-08-09T03:28:59.294Z,36.80
2022-08-09T03:31:09.860Z,36.80
2022-08-09T03:33:17.413Z,36.90
2022-08-09T03:35:24.755Z,36.90
2022-08-09T03:37:56.589Z,36.90
2022-08-09T03:40:00.260Z,36.90
2022-08-09T03:42:05.925Z,36.90
2022-08-09T03:44:09.214Z,36.90
2022-08-09T03:46:27.237Z,36.90
2022-08-09T03:48:33.894Z,36.90
2022-08-09T03:50:39.588Z,36.90
2022-08-09T03:52:43.616Z,36.80
2022-08-09T03:54:50.998Z,36.80
2022-08-09T03:56:53.968Z,36.90
2022-08-09T03:58:59.614Z,36.90
2022-08-09T04:01:01.646Z,36.90
2022-08-09T04:03:03.999Z,36.90
2022-08-09T04:05:27.997Z,37.00
2022-08-09T04:07:52.165Z,36.90
2022-08-09T04:09:52.968Z,36.90
2022-08-09T04:12:11.847Z,36.90
2022-08-09T04:14:53.759Z,36.90
2022-08-09T04:16:35.695Z,36.90
2022-08-09T04:18:37.429Z,36.90
2022-08-09T04:20:39.315Z,37.00
2022-08-09T04:22:44.228Z,36.90
2022-08-09T04:24:46.231Z,37.00
2022-08-09T04:26:47.881Z,37.00
2022-08-09T04:28:54.063Z,37.00
2022-08-09T04:30:59.167Z,37.00
2022-08-09T04:33:01.726Z,37.00
2022-08-09T04:35:03.852Z,37.00
2022-08-09T04:37:05.637Z,37.10
2022-08-09T04:39:10.732Z,37.10
2022-08-09T04:41:13.728Z,37.00
2022-08-09T04:43:17.065Z,37.10
2022-08-09T04:45:20.549Z,37.10
2022-08-09T04:47:23.735Z,37.00
2022-08-09T04:49:40.638Z,37.10
2022-08-09T04:51:48.552Z,37.00
2022-08-09T04:53:54.150Z,37.10
2022-08-09T04:56:00.394Z,37.10
2022-08-09T04:58:09.529Z,37.10
2022-08-09T05:00:12.205Z,37.10
2022-08-09T05:02:14.169Z,37.10
2022-08-09T05:04:15.951Z,37.10
2022-08-09T05:06:21.958Z,37.70
2022-08-09T05:08:29.732Z,37.00
2022-08-09T05:10:31.632Z,37.00
2022-08-09T05:12:34.059Z,36.90
2022-08-09T05:14:36.205Z,37.50
2022-08-09T05:16:58.251Z,36.80
2022-08-09T05:19:00.469Z,36.90
2022-08-09T05:21:02.924Z,36.90
2022-08-09T05:23:53.574Z,36.80
2022-08-09T05:25:33.587Z,36.80
2022-08-09T05:27:45.460Z,36.80
2022-08-09T05:29:49.693Z,36.70
2022-08-09T05:31:57.297Z,36.70
2022-08-09T05:33:59.884Z,36.70
2022-08-09T05:36:03.972Z,36.70
2022-08-09T05:38:05.675Z,36.60
2022-08-09T05:40:08.010Z,36.60
2022-08-09T05:42:17.629Z,36.70
2022-08-09T05:44:32.261Z,36.70
2022-08-09T05:46:34.777Z,36.70
2022-08-09T05:48:36.468Z,36.70
2022-08-09T05:50:57.056Z,36.60
2022-08-09T05:53:03.159Z,36.60
2022-08-09T05:55:07.169Z,36.60
2022-08-09T05:57:12.667Z,36.50
2022-08-09T05:59:16.065Z,36.60
2022-08-09T06:01:17.740Z,36.50
2022-08-09T06:03:21.348Z,36.60
2022-08-09T06:05:31.007Z,36.60
2022-08-09T06:08:04.926Z,36.70
2022-08-09T06:10:07.164Z,36.60
2022-08-09T06:12:17.562Z,36.60
2022-08-09T06:14:19.271Z,36.50
2022-08-09T06:16:23.246Z,36.60
2022-08-09T06:18:25.936Z,37.30
2022-08-09T06:20:28.194Z,36.60
2022-08-09T06:22:32.251Z,36.50
2022-08-09T06:24:34.105Z,36.50
2022-08-09T06:26:41.982Z,36.50
2022-08-09T06:28:47.147Z,36.50
2022-08-09T06:30:48.953Z,36.50
2022-08-09T06:33:00.680Z,36.50
2022-08-09T06:35:15.016Z,36.50
2022-08-09T06:37:16.681Z,36.50
2022-08-09T06:39:19.816Z,36.50
2022-08-09T06:41:22.312Z,36.50
2022-08-09T06:43:43.961Z,36.40
2022-08-09T06:46:07.248Z,36.50
2022-08-09T06:48:07.531Z,36.50
2022-08-09T06:50:18.965Z,36.50
2022-08-09T06:52:29.352Z,36.50
2022-08-09T06:54:31.553Z,36.50
2022-08-09T06:56:33.991Z,36.50
2022-08-09T07:00:48.935Z,36.40
2022-08-09T07:00:59.856Z,36.50
2022-08-09T07:03:05.447Z,36.50
2022-08-09T07:05:08.375Z,36.40
2022-08-09T07:07:11.884Z,36.40
2022-08-09T07:09:14.572Z,36.50
2022-08-09T07:11:51.894Z,36.50
2022-08-09T07:14:05.278Z,36.50
2022-08-09T07:16:42.429Z,36.40
2022-08-09T07:18:31.433Z,36.40
2022-08-09T07:20:33.756Z,36.40
2022-08-09T07:22:45.073Z,36.50
2022-08-09T07:24:52.088Z,36.40
2022-08-09T07:26:53.976Z,36.30
2022-08-09T07:29:09.411Z,36.40
2022-08-09T07:31:14.860Z,36.40
2022-08-09T07:33:17.859Z,36.40
2022-08-09T07:35:19.701Z,36.40
2022-08-09T07:37:22.044Z,36.40
2022-08-09T07:39:41.433Z,36.40
2022-08-09T07:41:44.871Z,36.40
2022-08-09T07:43:55.837Z,36.40
2022-08-09T07:46:02.017Z,36.40
2022-08-09T07:48:05.446Z,36.40
2022-08-09T07:50:08.701Z,36.30
2022-08-09T07:52:17.841Z,36.40
2022-08-09T07:54:28.218Z,36.30
2022-08-09T07:56:33.552Z,36.30
2022-08-09T07:58:35.666Z,36.40
2022-08-09T08:00:37.606Z,36.40
2022-08-09T08:03:02.202Z,36.30
2022-08-09T08:05:17.709Z,36.20
2022-08-09T08:08:06.593Z,36.30
2022-08-09T08:09:51.532Z,36.20
2022-08-09T08:12:24.558Z,36.30
2022-08-09T08:14:17.232Z,36.30
2022-08-09T08:16:29.957Z,36.40
2022-08-09T08:18:34.096Z,36.30
2022-08-09T08:20:38.818Z,36.30
2022-08-09T08:22:44.830Z,36.30
2022-08-09T08:24:55.569Z,36.30
2022-08-09T08:26:59.318Z,36.30
2022-08-09T08:29:00.991Z,36.30
2022-08-09T08:31:10.476Z,36.30
2022-08-09T08:33:24.291Z,36.30
2022-08-09T08:35:28.244Z,36.30
2022-08-09T08:37:41.412Z,36.30
2022-08-09T08:39:56.647Z,36.30
2022-08-09T08:41:59.080Z,36.30
2022-08-09T08:44:03.439Z,36.30
2022-08-09T08:46:32.942Z,36.20
2022-08-09T08:48:33.179Z,36.20
2022-08-09T08:50:35.084Z,36.20
2022-08-09T08:52:59.550Z,36.20
2022-08-09T08:55:04.012Z,36.20
2022-08-09T08:57:11.548Z,37.00
2022-08-09T08:59:19.180Z,36.30
2022-08-09T09:01:24.932Z,36.20
2022-08-09T09:03:38.698Z,36.10
2022-08-09T09:05:58.134Z,36.10
2022-08-09T09:08:03.653Z,36.10
2022-08-09T09:10:09.371Z,36.10
2022-08-09T09:12:16.919Z,36.10
2022-08-09T09:14:24.947Z,36.10
2022-08-09T09:16:32.183Z,36.10
2022-08-09T09:18:35.941Z,36.10
2022-08-09T09:20:38.676Z,36.10
2022-08-09T09:22:54.569Z,35.90
2022-08-09T09:26:04.909Z,35.70
2022-08-09T09:28:05.329Z,35.90
2022-08-09T09:30:14.063Z,35.90
2022-08-09T09:32:15.437Z,35.80
2022-08-09T09:34:18.476Z,35.90
2022-08-09T09:36:21.971Z,35.90
2022-08-09T09:38:38.846Z,35.90
2022-08-09T09:40:46.762Z,35.90
2022-08-09T09:42:57.971Z,35.90
2022-08-09T09:45:03.251Z,35.90
2022-08-09T09:47:05.085Z,35.90
2022-08-09T09:49:10.331Z,35.90
2022-08-09T09:51:26.055Z,35.90
2022-08-09T09:53:57.562Z,35.60
2022-08-09T09:56:05.266Z,35.90
2022-08-09T09:58:19.037Z,35.90
2022-08-09T10:00:24.930Z,35.90
2022-08-09T10:02:29.370Z,35.90
2022-08-09T10:04:31.615Z,35.80
2022-08-09T10:06:42.614Z,35.80
2022-08-09T10:08:57.311Z,35.80
2022-08-09T10:10:59.567Z,35.80
2022-08-09T10:13:01.388Z,35.80
2022-08-09T10:15:17.686Z,35.80
2022-08-09T10:17:50.715Z,35.50
2022-08-09T10:19:58.837Z,35.80
2022-08-09T10:22:01.646Z,35.80
2022-08-09T10:24:04.950Z,35.80
2022-08-09T10:26:11.034Z,35.70
2022-08-09T10:28:13.296Z,35.70
2022-08-09T10:32:42.274Z,35.70
2022-08-09T10:34:46.180Z,35.70
2022-08-09T10:36:57.634Z,35.70
2022-08-09T10:39:00.115Z,35.70
2022-08-09T10:41:02.920Z,35.70
2022-08-09T10:43:05.955Z,35.70
2022-08-09T10:45:16.033Z,35.60
2022-08-09T10:48:29.645Z,35.70
2022-08-09T10:50:18.025Z,35.60
2022-08-09T10:52:42.780Z,35.60
2022-08-09T10:54:48.439Z,35.40
2022-08-09T10:57:23.282Z,35.60
2022-08-09T10:59:30.673Z,35.30
2022-08-09T11:03:14.075Z,35.60
2022-08-09T11:04:30.515Z,35.60
2022-08-09T11:06:37.164Z,35.40
2022-08-09T11:08:47.605Z,35.50
2022-08-09T11:10:56.042Z,35.50
2022-08-09T11:13:51.106Z,35.50
2022-08-09T11:16:04.491Z,35.40
2022-08-09T11:18:06.839Z,35.40
2022-08-09T11:20:20.501Z,35.40
2022-08-09T11:22:56.789Z,35.40
2022-08-09T11:25:03.645Z,35.30
2022-08-09T11:28:05.167Z,35.40
2022-08-09T11:30:04.242Z,35.40
2022-08-09T11:32:10.045Z,35.40
2022-08-09T11:34:23.307Z,35.40
2022-08-09T11:36:35.755Z,36.00
2022-08-09T11:38:41.456Z,35.40
2022-08-09T11:40:43.860Z,35.40
2022-08-09T11:42:48.856Z,35.40
2022-08-09T11:44:53.079Z,35.40
2022-08-09T11:47:00.787Z,35.50
2022-08-09T11:49:05.122Z,35.50
2022-08-09T11:52:48.587Z,35.50
2022-08-09T11:54:01.695Z,35.40
2022-08-09T11:56:03.006Z,35.40
2022-08-09T11:58:30.359Z,35.50
2022-08-09T12:00:35.939Z,35.50
2022-08-09T12:02:40.670Z,35.50
2022-08-09T12:04:43.296Z,35.50
2022-08-09T12:06:56.226Z,35.40
2022-08-09T12:08:58.713Z,35.50
2022-08-09T12:11:03.884Z,35.40
2022-08-09T12:14:07.824Z,35.40
2022-08-09T12:15:48.885Z,35.40
2022-08-09T12:17:52.238Z,35.40
2022-08-09T12:19:59.763Z,35.40
2022-08-09T12:22:04.087Z,35.50
2022-08-09T12:24:10.093Z,35.50
2022-08-09T12:26:12.759Z,35.50
2022-08-09T12:29:00.251Z,35.50
2022-08-09T12:30:45.364Z,35.50
2022-08-09T12:33:02.148Z,35.60
2022-08-09T12:35:12.298Z,35.60
2022-08-09T12:37:23.873Z,35.50
2022-08-09T12:39:26.642Z,35.50
2022-08-09T12:41:38.053Z,35.50
2022-08-09T12:44:06.324Z,35.50
2022-08-09T12:46:03.523Z,35.50
2022-08-09T12:48:20.170Z,35.60
2022-08-09T12:50:34.365Z,35.60
2022-08-09T12:53:09.375Z,35.50
2022-08-09T12:56:12.833Z,35.60
2022-08-09T12:57:42.940Z,35.50
2022-08-09T13:00:03.102Z,35.50
2022-08-09T13:02:07.194Z,35.50
2022-08-09T13:04:33.288Z,35.50
2022-08-09T13:06:40.027Z,35.60
2022-08-09T13:09:02.664Z,36.30
2022-08-09T13:11:23.106Z,35.60
2022-08-09T13:14:11.907Z,35.60
2022-08-09T13:15:56.631Z,36.30
2022-08-09T13:18:06.225Z,35.60
2022-08-09T13:20:17.517Z,35.70
2022-08-09T13:22:36.658Z,35.60
2022-08-09T13:24:54.142Z,35.70
2022-08-09T13:26:57.923Z,35.70
2022-08-09T13:29:15.298Z,35.70
2022-08-09T13:32:20.351Z,35.60
2022-08-09T13:33:52.748Z,35.70
2022-08-09T13:36:39.232Z,35.70
2022-08-09T13:38:56.196Z,35.70
2022-08-09T13:41:55.142Z,35.70
2022-08-09T13:43:05.070Z,35.60
2022-08-09T13:45:13.150Z,35.60
2022-08-09T13:47:31.090Z,35.60
2022-08-09T13:49:56.552Z,35.50
2022-08-09T13:52:01.215Z,35.50
2022-08-09T13:54:03.242Z,35.60
2022-08-09T13:56:05.425Z,35.60
2022-08-09T13:58:07.981Z,35.60
2022-08-09T14:00:18.640Z,35.60
2022-08-09T14:02:25.761Z,35.60
2022-08-09T14:04:28.354Z,35.60
2022-08-09T14:06:31.804Z,35.60
2022-08-09T14:08:36.124Z,35.70
2022-08-09T14:10:49.005Z,35.60
2022-08-09T14:12:54.473Z,35.60
2022-08-09T14:14:56.586Z,35.60
2022-08-09T14:16:58.761Z,35.60
2022-08-09T14:19:00.444Z,35.60
2022-08-09T14:21:03.237Z,35.60
2022-08-09T14:23:07.741Z,35.60
2022-08-09T14:25:10.126Z,35.60
2022-08-09T14:27:19.826Z,35.60
2022-08-09T14:30:04.027Z,35.60
2022-08-09T14:31:49.742Z,35.50
2022-08-09T14:33:54.737Z,35.50
2022-08-09T14:35:56.532Z,35.50
2022-08-09T14:38:02.704Z,35.60
2022-08-09T14:40:06.540Z,35.60
2022-08-09T14:42:08.469Z,35.50
2022-08-09T14:44:11.408Z,35.50
2022-08-09T14:46:56.646Z,35.50
2022-08-09T14:48:35.512Z,35.70
2022-08-09T14:50:37.384Z,35.60
2022-08-09T14:52:39.040Z,35.60
2022-08-09T14:54:40.734Z,35.60
2022-08-09T14:56:57.439Z,35.60
2022-08-09T14:59:00.486Z,35.60
2022-08-09T15:01:02.246Z,35.60
2022-08-09T15:03:07.273Z,35.60
2022-08-09T15:05:11.414Z,35.60
2022-08-09T15:07:17.220Z,35.60
2022-08-09T15:09:30.423Z,35.70
2022-08-09T15:11:44.301Z,35.70
2022-08-09T15:13:57.384Z,35.60
2022-08-09T15:16:07.988Z,35.60
2022-08-09T15:18:12.407Z,35.70
2022-08-09T15:22:00.869Z,35.70
2022-08-09T15:22:46.735Z,35.60
2022-08-09T15:24:48.920Z,35.60
2022-08-09T15:26:53.252Z,35.50
2022-08-09T15:28:55.473Z,35.50
2022-08-09T15:31:10.345Z,35.50
2022-08-09T15:33:28.068Z,35.60
2022-08-09T15:35:44.234Z,35.60
2022-08-09T15:38:10.913Z,35.50
2022-08-09T15:40:14.600Z,35.60
2022-08-09T15:42:16.403Z,35.60
2022-08-09T15:44:22.940Z,35.70
2022-08-09T15:46:32.982Z,35.50
2022-08-09T15:48:37.521Z,35.60
2022-08-09T15:50:39.543Z,35.60
2022-08-09T15:52:55.093Z,35.70
2022-08-09T15:55:11.248Z,35.70
2022-08-09T15:57:13.377Z,35.70
2022-08-09T15:59:15.051Z,36.40
2022-08-09T16:01:16.918Z,35.70
2022-08-09T16:03:26.742Z,36.40
2022-08-09T16:05:53.192Z,35.70
2022-08-09T16:07:57.655Z,35.70
2022-08-09T16:10:04.355Z,35.70
2022-08-09T16:12:07.001Z,35.70
2022-08-09T16:14:13.690Z,35.70
2022-08-09T16:16:17.391Z,35.70
2022-08-09T16:18:20.701Z,35.60
2022-08-09T16:20:30.055Z,35.70
2022-08-09T16:22:33.714Z,35.70
2022-08-09T16:24:35.763Z,35.70
2022-08-09T16:26:37.714Z,35.60
2022-08-09T16:28:39.416Z,35.70
2022-08-09T16:30:44.745Z,35.60
2022-08-09T16:33:08.949Z,35.70
2022-08-09T16:35:11.264Z,35.70
2022-08-09T16:37:55.328Z,35.70
2022-08-09T16:39:54.464Z,35.60
2022-08-09T16:42:05.041Z,35.60
2022-08-09T16:44:06.818Z,35.70
2022-08-09T16:46:10.894Z,35.70
2022-08-09T16:48:42.959Z,35.70
2022-08-09T16:50:38.627Z,35.60
2022-08-09T16:52:41.086Z,35.70
2022-08-09T16:54:44.826Z,35.70
2022-08-09T16:56:49.143Z,35.60
2022-08-09T16:58:52.079Z,35.60
2022-08-09T17:00:54.844Z,35.60
2022-08-09T17:02:57.455Z,35.60
2022-08-09T17:04:59.827Z,35.70
2022-08-09T17:07:07.327Z,35.60
2022-08-09T17:09:45.763Z,35.60
2022-08-09T17:11:48.220Z,35.60
2022-08-09T17:14:01.632Z,35.60
2022-08-09T17:16:04.342Z,35.60
2022-08-09T17:18:06.851Z,35.60
2022-08-09T17:20:29.904Z,35.60
2022-08-09T17:22:34.413Z,35.60
2022-08-09T17:24:37.803Z,35.50
2022-08-09T17:26:53.255Z,35.60
2022-08-09T17:28:55.342Z,35.60
2022-08-09T17:30:57.022Z,35.60
2022-08-09T17:33:05.563Z,35.60
2022-08-09T17:35:24.303Z,35.60
2022-08-09T17:37:25.980Z,35.50
2022-08-09T17:39:52.705Z,35.60
2022-08-09T17:41:53.245Z,35.60
2022-08-09T17:44:38.076Z,35.60
2022-08-09T17:46:16.537Z,35.60
2022-08-09T17:48:19.476Z,35.60
2022-08-09T17:50:36.857Z,35.60
2022-08-09T17:52:39.593Z,35.60
2022-08-09T17:54:41.254Z,35.60
2022-08-09T17:56:45.041Z,35.60
2022-08-09T17:58:47.021Z,35.70
2022-08-09T18:00:48.969Z,35.70
2022-08-09T18:02:58.465Z,35.70
2022-08-09T18:05:00.467Z,35.60
2022-08-09T18:07:04.743Z,35.60
2022-08-09T18:09:09.457Z,35.60
2022-08-09T18:11:16.336Z,35.60
2022-08-09T18:13:39.999Z,35.70
2022-08-09T18:16:05.591Z,35.70
2022-08-09T18:18:07.998Z,35.60
2022-08-09T18:20:54.656Z,35.60
2022-08-09T18:22:33.743Z,35.60
2022-08-09T18:24:35.881Z,35.60
2022-08-09T18:26:46.870Z,35.70
2022-08-09T18:30:41.447Z,35.60
2022-08-09T18:31:12.061Z,35.60
2022-08-09T18:33:15.201Z,35.60
2022-08-09T18:35:17.057Z,35.60
2022-08-09T18:37:47.395Z,35.60
2022-08-09T18:39:45.854Z,35.60
2022-08-09T18:41:52.204Z,35.60
2022-08-09T18:43:55.545Z,35.50
2022-08-09T18:46:48.544Z,35.60
2022-08-09T18:48:19.143Z,35.50
2022-08-09T18:50:22.155Z,35.50
2022-08-09T18:52:28.561Z,35.50
2022-08-09T18:54:36.964Z,35.60
2022-08-09T18:56:38.655Z,35.50
2022-08-09T18:58:40.347Z,35.50
2022-08-09T19:00:42.129Z,35.50
2022-08-09T19:02:44.512Z,35.50
2022-08-09T19:04:47.957Z,35.50
2022-08-09T19:07:05.366Z,35.50
2022-08-09T19:09:07.847Z,35.50
2022-08-09T19:11:15.306Z,35.60
2022-08-09T19:13:22.255Z,35.60
2022-08-09T19:15:38.685Z,35.60
2022-08-09T19:17:54.541Z,35.60
2022-08-09T19:19:58.795Z,35.60
2022-08-09T19:22:06.449Z,35.60
2022-08-09T19:24:31.980Z,35.50
2022-08-09T19:26:35.251Z,35.60
2022-08-09T19:28:38.257Z,35.50
2022-08-09T19:30:44.880Z,35.50
2022-08-09T19:32:49.265Z,35.50
2022-08-09T19:34:55.097Z,36.20
2022-08-09T19:36:59.072Z,35.50
2022-08-09T19:39:03.436Z,35.60
2022-08-09T19:41:07.881Z,35.60
2022-08-09T19:43:10.293Z,35.50
2022-08-09T19:45:18.660Z,35.50
2022-08-09T19:47:23.597Z,35.40
2022-08-09T19:50:07.861Z,35.50
2022-08-09T19:51:55.685Z,35.50
2022-08-09T19:54:01.683Z,35.40
2022-08-09T19:56:06.470Z,35.50
2022-08-09T19:58:16.480Z,35.50
2022-08-09T20:00:18.840Z,35.40
2022-08-09T20:04:10.449Z,35.40
2022-08-09T20:04:47.812Z,35.40
2022-08-09T20:06:57.383Z,35.40
2022-08-09T20:08:59.487Z,35.40
2022-08-09T20:11:04.168Z,35.40
2022-08-09T20:13:08.092Z,35.40
2022-08-09T20:16:38.241Z,35.40
2022-08-09T20:17:41.535Z,35.40
2022-08-09T20:19:54.098Z,35.30
2022-08-09T20:21:59.938Z,35.30
2022-08-09T20:24:02.745Z,35.30
2022-08-09T20:26:06.924Z,35.30
2022-08-09T20:28:08.758Z,35.30
2022-08-09T20:30:14.908Z,35.30
2022-08-09T20:32:40.196Z,35.30
2022-08-09T20:34:42.447Z,35.20
2022-08-09T20:36:45.443Z,35.20
2022-08-09T20:39:28.189Z,35.10
2022-08-09T20:41:08.948Z,35.10
2022-08-09T20:43:18.079Z,35.20
2022-08-09T20:46:01.711Z,35.20
2022-08-09T20:47:45.563Z,35.20
2022-08-09T20:49:50.809Z,35.10
2022-08-09T20:51:52.453Z,35.10
2022-08-09T20:53:56.045Z,35.10
2022-08-09T20:56:00.672Z,35.10
2022-08-09T20:58:07.956Z,35.00
2022-08-09T21:00:30.878Z,35.00
2022-08-09T21:02:34.951Z,35.10
2022-08-09T21:05:54.620Z,35.10
2022-08-09T21:06:58.513Z,35.10
2022-08-09T21:09:00.359Z,35.20
2022-08-09T21:11:02.713Z,35.20
2022-08-09T21:13:08.328Z,35.20
2022-08-09T21:15:14.506Z,35.30
2022-08-09T21:18:23.528Z,35.20
2022-08-09T21:20:19.265Z,35.20
2022-08-09T21:22:04.458Z,35.20
2022-08-09T21:24:28.522Z,35.20
2022-08-09T21:26:30.730Z,35.30
2022-08-09T21:28:36.381Z,35.30
2022-08-09T21:30:40.571Z,35.30
2022-08-09T21:32:42.451Z,35.40
2022-08-09T21:34:48.608Z,35.40
2022-08-09T21:36:55.776Z,35.40
2022-08-09T21:38:59.633Z,35.40
2022-08-09T21:41:01.563Z,35.40
2022-08-09T21:43:06.299Z,35.40
2022-08-09T21:45:08.316Z,35.40
2022-08-09T21:47:18.989Z,35.40
2022-08-09T21:49:20.887Z,35.40
2022-08-09T21:51:24.082Z,35.40
2022-08-09T21:53:40.619Z,35.40
2022-08-09T21:55:46.722Z,35.40
2022-08-09T21:57:59.564Z,35.50
2022-08-09T22:00:01.808Z,35.40
2022-08-09T22:02:03.619Z,35.40
2022-08-09T22:04:05.320Z,35.50
2022-08-09T22:06:07.198Z,35.50
2022-08-09T22:08:11.898Z,35.50
2022-08-09T22:10:15.742Z,35.60
2022-08-09T22:12:31.255Z,35.50
2022-08-09T22:14:33.700Z,36.20
2022-08-09T22:16:37.426Z,35.50
2022-08-09T22:18:52.813Z,35.50
2022-08-09T22:20:56.345Z,35.60
2022-08-09T22:22:58.236Z,35.60
2022-08-09T22:26:05.710Z,35.60
2022-08-09T22:27:23.068Z,35.60
2022-08-09T22:29:32.265Z,35.60
2022-08-09T22:31:56.305Z,35.60
2022-08-09T22:33:59.439Z,35.60
2022-08-09T22:36:03.793Z,35.70
2022-08-09T22:38:06.821Z,35.70
2022-08-09T22:40:10.610Z,35.70
2022-08-09T22:42:23.241Z,35.70
2022-08-09T22:44:25.833Z,35.70
2022-08-09T22:48:16.425Z,35.70
2022-08-09T22:48:56.424Z,35.70
2022-08-09T22:51:10.562Z,35.80
2022-08-09T22:53:19.387Z,35.70
2022-08-09T22:55:22.932Z,35.80
2022-08-09T22:57:31.470Z,36.40
2022-08-09T22:59:57.272Z,35.80
2022-08-09T23:01:55.497Z,35.80
2022-08-09T23:04:04.201Z,35.70
2022-08-09T23:06:07.938Z,35.80
2022-08-09T23:08:34.520Z,35.80
2022-08-09T23:10:39.210Z,35.90
2022-08-09T23:12:44.876Z,35.80
2022-08-09T23:14:46.545Z,35.80
2022-08-09T23:16:48.228Z,35.80
2022-08-09T23:18:49.939Z,35.80
2022-08-09T23:20:51.624Z,35.80
2022-08-09T23:22:53.432Z,35.80
2022-08-09T23:24:55.103Z,36.40
2022-08-09T23:26:56.832Z,35.80
2022-08-09T23:28:58.508Z,35.80
2022-08-09T23:31:00.204Z,35.80
2022-08-09T23:33:01.910Z,35.80
2022-08-09T23:35:03.783Z,35.80
2022-08-09T23:37:06.006Z,35.80
2022-08-09T23:39:08.329Z,35.80
2022-08-09T23:41:10.111Z,35.80
2022-08-09T23:43:29.854Z,35.80
2022-08-09T23:45:37.332Z,35.80
2022-08-09T23:47:40.284Z,35.90
2022-08-09T23:49:41.979Z,35.90
2022-08-09T23:51:43.646Z,35.90
2022-08-09T23:53:45.348Z,35.90
2022-08-09T23:55:49.889Z,35.90
2022-08-09T23:58:08.230Z,35.90
